• Join FlightAware (Why Join?)
  • Login
  • US Flag 
04:04AM EDT


 

Airport Tracker/Info


-or-


 

Live Flight TrackerFlight Track Log ✈ EGF4278 ✈ 11-Jun-2013 ✈ KCMI - KORD

Flight Track Log - Related Links

Times and Time Zones

All times are in EDT time to prevent confusion due to time zone crossing. See the EGF4278 flight status page for this flight to view local times or setup timezone preferences in your user account.

Time Position Orientation Groundspeed Altitude Reporting Facility
EDT Latitude Longitude Course Direction KTS MPH feet Rate Location/Type
07:11AM 40.1161 -88.3283 355° North 200 230 3,800  Level Chicago Center
07:12AM 40.1536 -87.9797 37° Northeast  Level FlightAware Approximate
07:12AM 40.1744 -88.3628 336° Northwest 222 255 5,500  Level Chicago Center
07:13AM 40.2006 -87.8904 60° Northeast  Level FlightAware Approximate
07:13AM 40.2450 -88.4019 337° Northwest 252 290 8,000  Level Chicago Center
07:14AM 40.2414 -87.7946 64° Northeast  Level FlightAware Approximate
07:14AM 40.3089 -88.4389 336° Northwest 251 289 9,700  Level Chicago Center
07:15AM 40.2774 -87.6955 64° Northeast  Level FlightAware Approximate
07:15AM 40.3756 -88.4772 336° Northwest 261 300 11,000  Level Chicago Center
07:16AM 40.3535 -87.7047 355° North  Level Estimated
07:16AM 40.4661 -88.5294 336° Northwest 296 341 12,300  Level Chicago Center
07:17AM 40.5458 -88.5753 336° Northwest 311 358 13,500 1,200 Climbing Chicago Center
07:18AM 40.6292 -88.6217 337° Northwest 323 372 14,800 1,380 Climbing Chicago Center
07:19AM 40.7103 -88.6689 336° Northwest 321 369 16,400 1,500 Climbing Chicago Center
07:20AM 40.7889 -88.7133 337° Northwest 311 358 17,900 1,320 Climbing Chicago Center
07:21AM 40.8714 -88.7272 353° North 315 362 19,100 1,320 Climbing Chicago Center
07:22AM 40.9597 -88.7133 North 320 368 20,700 1,260 Climbing Chicago Center
07:23AM 41.0478 -88.6986 North 318 366 21,800 -60 Climbing Chicago Center
07:24AM 41.1456 -88.6836 North 353 406 20,600 -2,520 Descending Chicago Center
07:25AM 41.2489 -88.6689 North 371 427 16,700 -4,020 Descending Chicago Center
07:26AM 41.3678 -88.6519 North 358 412 12,400 -2,820 Descending Chicago Center
07:27AM 41.4606 -88.6364 North 338 389 11,000 -720 Descending Chicago Center
07:28AM 41.5456 -88.5831 25° Northeast 360 414 11,000  Level Chicago Center
07:29AM 41.6092 -88.4767 51° Northeast 365 420 11,000  Level Chicago Center
07:30AM 41.6700 -88.3703 53° Northeast 360 414 11,000  Level Chicago Center
07:31AM 41.7336 -88.2575 53° Northeast 375 432 11,000 -420 Level Chicago Center
07:32AM 41.7928 -88.1531 53° Northeast 354 407 10,200 -1,020 Descending Chicago Center
07:33AM 41.8417 -88.0644 53° Northeast 302 348 9,000 -1,380 Descending Chicago Center
07:34AM 41.8833 -88.0000 49° Northeast 291 335 8,000 -1,260 Descending Chicago TRACON
07:35AM 41.8833 -87.8833 90° East 288 331 7,000 -720 Descending Chicago TRACON
07:35AM 41.8844 -87.8508 87° East 280 322 7,000 -840 Level Chicago Center
07:36AM 41.8842 -87.7600 90° East 254 292 5,800 -1,260 Descending Chicago Center
07:37AM 41.9042 -87.6814 71° East 251 289 4,400 -1,380 Descending Chicago Center